createdAt,value
2019-04-11T00:00:01.811Z,0.8
2019-04-11T00:05:02.654Z,0.9
2019-04-11T00:10:01.219Z,1.0
2019-04-11T00:15:00.966Z,1.1
2019-04-11T00:20:02.392Z,1.1
2019-04-11T00:25:01.391Z,1.2
2019-04-11T00:30:02.194Z,1.1
2019-04-11T00:35:01.982Z,1.0
2019-04-11T00:40:02.090Z,1.0
2019-04-11T00:45:01.116Z,1.1
2019-04-11T00:50:01.326Z,1.3
2019-04-11T01:00:01.187Z,1.5
2019-04-11T01:10:01.384Z,1.5
2019-04-11T01:15:01.025Z,1.5
2019-04-11T01:20:00.973Z,1.5
2019-04-11T01:25:01.278Z,1.5
2019-04-11T01:30:02.438Z,1.5
2019-04-11T01:35:01.570Z,1.4
2019-04-11T01:40:01.803Z,1.5
2019-04-11T01:45:01.433Z,1.5
2019-04-11T01:50:01.136Z,1.5
2019-04-11T01:55:02.265Z,1.6
2019-04-11T02:00:02.267Z,1.6
2019-04-11T02:05:01.153Z,1.7
2019-04-11T02:10:02.373Z,1.7
2019-04-11T02:15:01.522Z,1.9
2019-04-11T02:20:01.053Z,2.0
2019-04-11T02:25:01.037Z,2.3
2019-04-11T02:30:04.611Z,2.3
2019-04-11T02:35:08.639Z,2.3
2019-04-11T02:40:01.030Z,2.6
2019-04-11T02:50:01.233Z,2.6
2019-04-11T02:55:01.200Z,2.7
2019-04-11T03:00:06.241Z,2.9
2019-04-11T03:05:07.806Z,3.0
2019-04-11T03:10:07.063Z,3.1
2019-04-11T03:25:07.909Z,3.2
2019-04-11T03:30:11.091Z,3.2
2019-04-11T03:50:20.884Z,3.3
2019-04-11T03:55:08.779Z,3.5
2019-04-11T04:00:06.521Z,3.6
2019-04-11T04:05:06.060Z,3.6
2019-04-11T04:10:09.022Z,3.6
2019-04-11T04:15:08.984Z,3.7
2019-04-11T04:20:05.336Z,4.0
2019-04-11T04:25:04.576Z,3.8
2019-04-11T04:30:06.473Z,3.8
2019-04-11T04:45:07.850Z,3.3
2019-04-11T04:50:06.350Z,3.3
2019-04-11T05:00:07.433Z,3.3
2019-04-11T05:05:06.185Z,3.4
2019-04-11T05:15:03.528Z,3.4
2019-04-11T05:20:01.152Z,3.3
2019-04-11T05:25:06.711Z,3.1
2019-04-11T05:30:01.182Z,3.2
2019-04-11T05:35:01.306Z,3.1
2019-04-11T05:40:01.282Z,3.2
2019-04-11T05:45:01.321Z,3.1
2019-04-11T05:50:01.482Z,3.2
2019-04-11T05:55:01.224Z,2.7
2019-04-11T06:00:01.478Z,2.7
2019-04-11T06:10:12.907Z,2.6
2019-04-11T06:15:02.396Z,2.7
2019-04-11T06:20:02.411Z,2.8
2019-04-11T06:25:01.240Z,2.8
2019-04-11T06:30:01.617Z,2.8
2019-04-11T06:35:02.267Z,2.7
2019-04-11T06:40:04.074Z,2.7
2019-04-11T06:45:02.531Z,2.7
2019-04-11T06:50:01.215Z,2.8
2019-04-11T07:00:01.298Z,2.9
2019-04-11T07:05:02.836Z,3.0
2019-04-11T07:15:02.859Z,3.1
2019-04-11T07:20:07.247Z,3.1
2019-04-11T07:25:02.330Z,3.2
2019-04-11T07:30:01.286Z,3.2
2019-04-11T07:35:06.756Z,3.6
2019-04-11T07:40:09.307Z,3.5
2019-04-11T07:45:06.919Z,3.6
2019-04-11T07:50:02.599Z,3.5
2019-04-11T07:55:07.042Z,3.4
2019-04-11T08:00:01.328Z,3.1
2019-04-11T08:05:02.695Z,2.8
2019-04-11T08:10:02.740Z,2.4
2019-04-11T08:15:01.869Z,2.4
2019-04-11T08:20:01.233Z,2.3
2019-04-11T08:25:01.345Z,2.1
2019-04-11T08:30:02.931Z,2.4
2019-04-11T08:40:02.171Z,2.2
2019-04-11T08:45:06.367Z,2.5
2019-04-11T08:55:02.565Z,2.5
2019-04-11T09:00:02.640Z,2.8
2019-04-11T09:05:18.202Z,2.7
2019-04-11T09:10:02.522Z,2.8
2019-04-11T09:15:02.875Z,2.8
2019-04-11T09:20:07.609Z,2.7
2019-04-11T09:25:01.362Z,3.0
2019-04-11T09:30:02.840Z,5.0
2019-04-11T09:35:02.278Z,5.4
2019-04-11T09:40:06.266Z,5.4
2019-04-11T09:45:01.758Z,5.2
2019-04-11T09:50:02.651Z,4.6
2019-04-11T09:55:01.363Z,2.9
2019-04-11T10:00:02.153Z,2.4
2019-04-11T10:05:03.018Z,2.4
2019-04-11T10:10:02.942Z,2.6
2019-04-11T10:15:01.427Z,2.4
2019-04-11T10:20:04.521Z,2.6
2019-04-11T10:25:01.455Z,2.4
2019-04-11T10:30:01.315Z,2.6
2019-04-11T10:35:02.195Z,2.4
2019-04-11T10:40:02.306Z,1.8
2019-04-11T10:45:03.048Z,1.8
2019-04-11T10:50:01.296Z,1.9
2019-04-11T10:55:01.393Z,2.0
2019-04-11T11:00:01.307Z,2.0
2019-04-11T11:05:01.506Z,2.4
2019-04-11T11:10:01.329Z,2.8
2019-04-11T11:15:01.417Z,2.4
2019-04-11T11:20:31.065Z,2.3
2019-04-11T11:25:02.642Z,2.3
2019-04-11T11:30:06.534Z,2.1
2019-04-11T11:35:01.510Z,1.9
2019-04-11T11:40:16.316Z,2.3
2019-04-11T11:45:05.551Z,2.3
2019-04-11T11:50:11.421Z,2.2
2019-04-11T11:55:02.585Z,2.1
2019-04-11T12:00:01.360Z,2.0
2019-04-11T12:05:07.635Z,1.8
2019-04-11T12:15:01.871Z,1.7
2019-04-11T12:20:16.292Z,1.8
2019-04-11T12:25:01.374Z,1.7
2019-04-11T12:30:09.363Z,1.7
2019-04-11T12:35:02.584Z,2.1
2019-04-11T12:40:01.527Z,2.2
2019-04-11T12:45:01.470Z,2.2
2019-04-11T12:50:01.346Z,2.3
2019-04-11T12:55:01.422Z,2.2
2019-04-11T13:00:01.363Z,1.8
2019-04-11T13:05:01.322Z,1.8
2019-04-11T13:10:01.366Z,1.6
2019-04-11T13:15:01.493Z,1.3
2019-04-11T13:20:05.610Z,1.3
2019-04-11T13:25:01.436Z,1.4
2019-04-11T13:30:01.385Z,1.4
2019-04-11T13:35:01.426Z,1.4
2019-04-11T13:40:01.355Z,1.9
2019-04-11T13:45:01.527Z,2.0
2019-04-11T13:50:16.072Z,2.0
2019-04-11T13:55:01.446Z,1.9
2019-04-11T14:00:01.402Z,2.1
2019-04-11T14:05:01.478Z,1.8
2019-04-11T14:10:02.697Z,1.5
2019-04-11T14:15:01.503Z,1.7
2019-04-11T14:20:01.372Z,1.7
2019-04-11T14:25:01.440Z,1.8
2019-04-11T14:30:01.368Z,1.8
2019-04-11T14:35:01.473Z,2.3
2019-04-11T14:40:01.373Z,2.1
2019-04-11T14:45:05.824Z,2.1
2019-04-11T14:55:01.467Z,2.4
2019-04-11T15:00:01.464Z,2.0
2019-04-11T15:10:01.542Z,2.5
2019-04-11T15:15:01.553Z,2.8
2019-04-11T15:20:03.496Z,2.9
2019-04-11T15:25:01.457Z,2.6
2019-04-11T15:30:01.435Z,2.5
2019-04-11T15:35:01.513Z,2.6
2019-04-11T15:40:02.398Z,2.7
2019-04-11T15:45:01.533Z,2.7
2019-04-11T15:50:01.526Z,2.9
2019-04-11T15:55:05.336Z,3.3
2019-04-11T16:00:01.537Z,3.2
2019-04-11T16:05:03.238Z,3.2
2019-04-11T16:10:01.387Z,3.2
2019-04-11T16:15:01.538Z,3.4
2019-04-11T16:20:01.417Z,3.9
2019-04-11T16:25:01.532Z,4.2
2019-04-11T16:30:01.503Z,4.5
2019-04-11T16:35:01.448Z,4.3
2019-04-11T16:40:01.425Z,4.1
2019-04-11T16:45:06.504Z,3.7
2019-04-11T16:50:01.418Z,3.8
2019-04-11T16:55:01.515Z,3.8
2019-04-11T17:00:01.499Z,3.9
2019-04-11T17:05:01.514Z,4.0
2019-04-11T17:10:01.427Z,4.1
2019-04-11T17:15:02.165Z,4.0
2019-04-11T17:20:01.418Z,3.7
2019-04-11T17:25:01.568Z,3.9
2019-04-11T17:30:01.452Z,3.7
2019-04-11T17:35:02.717Z,3.7
2019-04-11T17:45:01.458Z,3.9
2019-04-11T17:50:05.147Z,3.7
2019-04-11T17:55:01.506Z,3.9
2019-04-11T18:00:01.487Z,4.1
2019-04-11T18:05:01.509Z,4.1
2019-04-11T18:10:01.483Z,4.3
2019-04-11T18:15:03.246Z,4.2
2019-04-11T18:20:01.403Z,4.1
2019-04-11T18:25:01.588Z,4.0
2019-04-11T18:30:01.598Z,3.7
2019-04-11T18:36:03.150Z,4.0
2019-04-11T18:41:01.420Z,4.1
2019-04-11T18:46:01.535Z,4.4
2019-04-11T18:51:01.457Z,4.4
2019-04-11T18:56:02.113Z,4.6
2019-04-11T19:01:01.447Z,4.6
2019-04-11T19:06:01.503Z,4.1
2019-04-11T19:11:01.422Z,3.7
2019-04-11T19:16:01.432Z,3.5
2019-04-11T19:21:01.419Z,3.4
2019-04-11T19:26:01.506Z,3.4
2019-04-11T19:31:01.502Z,3.6
2019-04-11T19:36:02.490Z,5.2
2019-04-11T19:41:01.441Z,5.5
2019-04-11T19:46:01.526Z,6.1
2019-04-11T19:51:01.424Z,6.6
2019-04-11T19:56:06.095Z,6.5
2019-04-11T20:01:01.379Z,5.1
2019-04-11T20:06:01.505Z,4.4
2019-04-11T20:11:02.271Z,4.0
2019-04-11T20:16:01.465Z,3.4
2019-04-11T20:21:01.570Z,3.2
2019-04-11T20:26:01.502Z,3.2
2019-04-11T20:31:01.406Z,3.2
2019-04-11T20:36:01.496Z,3.2
2019-04-11T20:46:01.438Z,3.4
2019-04-11T20:51:01.437Z,3.4
2019-04-11T20:56:01.607Z,3.4
2019-04-11T21:01:01.452Z,3.4
2019-04-11T21:06:02.782Z,3.7
2019-04-11T21:11:05.422Z,3.5
2019-04-11T21:16:01.509Z,3.5
2019-04-11T21:21:02.466Z,3.9
2019-04-11T21:26:01.463Z,3.9
2019-04-11T21:31:01.348Z,3.7
2019-04-11T21:36:02.342Z,3.7
2019-04-11T21:41:01.403Z,3.9
2019-04-11T21:46:01.474Z,4.1
2019-04-11T21:56:01.503Z,3.5
2019-04-11T22:01:01.457Z,3.4
2019-04-11T22:06:01.560Z,3.4
2019-04-11T22:11:03.469Z,3.1
2019-04-11T22:16:01.534Z,3.0
2019-04-11T22:21:01.448Z,2.8
2019-04-11T22:26:01.540Z,2.8
2019-04-11T22:31:01.444Z,2.2
2019-04-11T22:36:01.551Z,2.0
2019-04-11T22:41:02.964Z,1.9
2019-04-11T22:46:02.317Z,1.8
2019-04-11T22:51:01.411Z,1.8
2019-04-11T22:56:01.505Z,1.7
2019-04-11T23:01:01.441Z,1.9
2019-04-11T23:11:01.451Z,2.3
2019-04-11T23:16:01.544Z,2.2
2019-04-11T23:21:01.443Z,1.9
2019-04-11T23:26:01.671Z,1.9
2019-04-11T23:31:01.399Z,2.3
2019-04-11T23:36:01.454Z,2.4
2019-04-11T23:46:01.445Z,2.4
2019-04-11T23:51:01.412Z,1.9
2019-04-11T23:56:01.539Z,2.0
